createdAt,value
2018-07-15T00:01:16.312Z,96.32
2018-07-15T00:03:46.671Z,96.10
2018-07-15T00:06:16.827Z,97.48
2018-07-15T00:08:46.911Z,97.44
2018-07-15T00:11:17.047Z,96.20
2018-07-15T00:13:47.161Z,95.12
2018-07-15T00:16:17.285Z,94.51
2018-07-15T03:55:28.038Z,94.51
2018-07-15T03:57:58.646Z,82.23
2018-07-15T04:00:28.961Z,82.07
2018-07-15T04:02:59.329Z,82.30
2018-07-15T04:05:35.634Z,81.81
2018-07-15T04:08:05.495Z,83.40
2018-07-15T04:10:35.485Z,84.34
2018-07-15T04:13:05.515Z,84.31
2018-07-15T04:15:35.561Z,84.29
2018-07-15T04:18:06.527Z,81.71
2018-07-15T04:20:37.595Z,80.79
2018-07-15T04:23:07.437Z,81.41
2018-07-15T04:25:37.624Z,80.82
2018-07-15T04:28:07.837Z,80.75
2018-07-15T04:30:38.163Z,81.65
2018-07-15T04:33:08.279Z,82.55
2018-07-15T04:35:38.287Z,82.15
2018-07-15T04:38:08.602Z,80.00
2018-07-15T04:40:38.984Z,80.00
2018-07-15T04:43:09.183Z,80.14
2018-07-15T04:45:39.163Z,80.32
2018-07-15T04:48:09.227Z,80.09
2018-07-15T04:50:39.425Z,80.84
2018-07-15T04:53:09.879Z,80.87
2018-07-15T04:55:40.248Z,78.80
2018-07-15T04:58:10.325Z,78.64
2018-07-15T05:00:40.351Z,78.66
2018-07-15T05:03:52.991Z,79.08
2018-07-15T05:06:23.212Z,77.25
2018-07-15T05:08:53.245Z,77.86
2018-07-15T05:11:23.572Z,76.70
2018-07-15T05:16:28.759Z,77.57
2018-07-15T05:18:59.122Z,78.32
2018-07-15T05:21:29.492Z,78.15
2018-07-15T05:23:59.553Z,78.18
2018-07-15T05:26:29.938Z,78.36
2018-07-15T05:28:59.989Z,79.02
2018-07-15T05:31:29.869Z,80.17
2018-07-15T05:34:00.113Z,79.83
2018-07-15T05:36:30.183Z,78.25
2018-07-15T05:39:00.458Z,77.57
2018-07-15T05:41:30.475Z,77.08
2018-07-15T05:44:00.752Z,75.93
2018-07-15T05:46:30.644Z,74.77
2018-07-15T05:49:00.876Z,73.51
2018-07-15T05:51:30.843Z,72.08
2018-07-15T05:54:00.784Z,72.32
2018-07-15T05:56:30.749Z,73.29
2018-07-15T05:59:00.847Z,73.86
2018-07-15T06:01:30.763Z,75.05
2018-07-15T06:04:00.740Z,75.62
2018-07-15T06:06:30.556Z,73.44
2018-07-15T06:09:00.281Z,74.22
2018-07-15T06:11:30.518Z,72.82
2018-07-15T06:14:00.345Z,73.19
2018-07-15T06:16:30.663Z,73.04
2018-07-15T06:19:00.673Z,72.54
2018-07-15T06:21:30.977Z,70.88
2018-07-15T06:24:00.853Z,68.45
2018-07-15T06:26:31.107Z,68.21
2018-07-15T06:29:01.189Z,66.68
2018-07-15T06:31:31.743Z,67.44
2018-07-15T06:34:01.738Z,66.52
2018-07-15T06:36:31.797Z,67.38
2018-07-15T06:39:01.726Z,65.36
2018-07-15T06:41:31.738Z,64.38
2018-07-15T06:44:01.986Z,62.78
2018-07-15T06:46:32.429Z,62.84
2018-07-15T06:49:02.816Z,63.78
2018-07-15T06:51:32.935Z,61.32
2018-07-15T06:54:03.213Z,62.05
2018-07-15T06:56:33.329Z,62.55
2018-07-15T06:59:03.617Z,62.06
2018-07-15T07:01:33.786Z,60.51
2018-07-15T07:04:03.970Z,60.05
2018-07-15T07:06:33.880Z,60.43
2018-07-15T07:09:04.983Z,61.42
2018-07-15T07:11:36.076Z,62.30
2018-07-15T07:14:06.145Z,61.99
2018-07-15T07:16:36.544Z,61.39
2018-07-15T07:19:06.399Z,61.90
2018-07-15T07:21:36.379Z,60.51
2018-07-15T07:24:06.425Z,60.37
2018-07-15T07:26:36.701Z,58.68
2018-07-15T07:29:06.757Z,53.19
2018-07-15T07:31:36.649Z,51.29
2018-07-15T07:34:06.688Z,50.77
2018-07-15T07:36:36.371Z,49.29
2018-07-15T07:39:07.158Z,47.52
2018-07-15T07:41:37.172Z,47.36
2018-07-15T07:44:07.245Z,47.65
2018-07-15T07:46:37.184Z,47.12
2018-07-15T07:49:07.468Z,44.50
2018-07-15T07:51:37.447Z,46.40
2018-07-15T07:54:07.345Z,49.93
2018-07-15T07:56:37.249Z,50.20
2018-07-15T07:59:08.135Z,45.68
2018-07-15T08:01:38.225Z,45.80
2018-07-15T08:04:08.457Z,43.03
2018-07-15T08:06:38.326Z,41.73
2018-07-15T08:09:08.505Z,40.96
2018-07-15T08:11:38.411Z,41.79
2018-07-15T08:14:08.109Z,41.32
2018-07-15T08:16:38.311Z,41.65
2018-07-15T08:19:08.134Z,42.84
2018-07-15T08:21:37.994Z,41.19
2018-07-15T08:24:08.118Z,42.01
2018-07-15T08:26:38.093Z,40.89
2018-07-15T08:29:07.991Z,40.49
2018-07-15T08:31:38.162Z,41.73
2018-07-15T08:34:07.881Z,41.19
2018-07-15T08:36:37.650Z,40.56
2018-07-15T08:39:07.806Z,39.85
2018-07-15T08:41:37.863Z,40.69
2018-07-15T08:44:07.768Z,40.37
2018-07-15T08:46:37.752Z,40.48
2018-07-15T08:49:07.705Z,39.25
2018-07-15T08:51:37.943Z,39.60
2018-07-15T08:54:07.943Z,39.62
2018-07-15T08:56:40.653Z,40.38
2018-07-15T08:59:10.607Z,40.33
2018-07-15T09:01:40.704Z,39.10
2018-07-15T09:04:11.177Z,38.75
2018-07-15T09:06:40.992Z,38.45
2018-07-15T09:09:10.748Z,36.82
2018-07-15T09:11:41.218Z,39.54
2018-07-15T09:14:11.113Z,38.75
2018-07-15T09:16:41.379Z,39.22
2018-07-15T09:19:11.589Z,38.15
2018-07-15T09:21:41.949Z,37.50
2018-07-15T09:24:11.829Z,37.93
2018-07-15T09:26:41.927Z,37.09
2018-07-15T09:29:12.020Z,39.32
2018-07-15T09:31:41.899Z,38.45
2018-07-15T09:34:11.759Z,38.79
2018-07-15T09:36:42.018Z,38.18
2018-07-15T09:39:12.005Z,38.46
2018-07-15T09:41:42.608Z,37.66
2018-07-15T09:44:12.987Z,37.67
2018-07-15T09:46:43.473Z,37.76
2018-07-15T09:49:13.224Z,35.79
2018-07-15T09:51:43.423Z,36.38
2018-07-15T09:54:13.615Z,36.10
2018-07-15T09:56:43.509Z,37.02
2018-07-15T09:59:13.506Z,37.69
2018-07-15T10:01:43.580Z,37.00
2018-07-15T10:04:13.633Z,36.56
2018-07-15T10:06:43.964Z,34.72
2018-07-15T10:09:13.652Z,34.89
2018-07-15T10:11:43.613Z,35.75
2018-07-15T10:14:13.757Z,35.37
2018-07-15T10:16:44.230Z,36.40
2018-07-15T10:19:14.314Z,34.92
2018-07-15T10:21:44.317Z,33.24
2018-07-15T10:24:14.371Z,34.68
2018-07-15T10:26:44.412Z,35.15
2018-07-15T10:29:14.037Z,35.62
2018-07-15T10:31:43.875Z,35.82
2018-07-15T10:34:13.723Z,36.85
2018-07-15T10:36:43.575Z,37.70
2018-07-15T10:39:14.471Z,36.57
2018-07-15T10:41:44.541Z,35.67
2018-07-15T10:44:14.924Z,34.86
2018-07-15T10:46:44.611Z,34.25
2018-07-15T10:49:14.483Z,35.65
2018-07-15T10:51:44.496Z,34.45
2018-07-15T10:54:14.412Z,33.41
2018-07-15T10:56:44.167Z,34.20
2018-07-15T10:59:14.073Z,34.03
2018-07-15T11:01:44.193Z,35.08
2018-07-15T11:04:14.641Z,34.85
2018-07-15T11:06:44.810Z,33.79
2018-07-15T11:09:14.658Z,33.49
2018-07-15T11:11:44.351Z,34.74
2018-07-15T11:14:14.248Z,33.77
2018-07-15T11:16:44.534Z,34.97
2018-07-15T11:19:14.596Z,33.08
2018-07-15T11:21:44.381Z,32.96
2018-07-15T11:24:14.345Z,33.73
2018-07-15T11:26:44.187Z,32.64
2018-07-15T11:29:14.472Z,33.21
2018-07-15T11:31:44.549Z,33.05
2018-07-15T11:34:14.970Z,32.46
2018-07-15T11:36:45.172Z,33.02
2018-07-15T11:39:15.253Z,33.78
2018-07-15T11:41:45.284Z,34.19
2018-07-15T11:44:15.353Z,34.83
2018-07-15T11:46:45.587Z,33.45
2018-07-15T11:49:15.439Z,34.27
2018-07-15T11:51:45.247Z,33.76
2018-07-15T11:54:14.924Z,34.22
2018-07-15T11:56:44.684Z,34.26
2018-07-15T11:59:14.842Z,34.97
2018-07-15T12:01:44.789Z,34.48
2018-07-15T12:04:14.429Z,32.69
2018-07-15T12:06:44.280Z,32.94
2018-07-15T12:09:14.000Z,32.51
2018-07-15T12:11:43.918Z,32.94
2018-07-15T12:14:13.917Z,32.41
2018-07-15T12:16:44.151Z,33.03
2018-07-15T12:19:14.197Z,34.52
2018-07-15T12:21:43.981Z,34.44
2018-07-15T12:24:13.639Z,33.41
2018-07-15T12:26:43.710Z,32.59
2018-07-15T12:29:13.655Z,33.29
2018-07-15T12:31:43.543Z,33.35
2018-07-15T12:34:13.380Z,34.00
2018-07-15T12:36:43.610Z,34.20
2018-07-15T12:39:13.414Z,33.24
2018-07-15T12:41:43.419Z,33.11
2018-07-15T12:44:13.099Z,32.77
2018-07-15T12:46:43.091Z,33.48
2018-07-15T12:49:13.075Z,33.07
2018-07-15T12:51:43.000Z,32.73
2018-07-15T12:54:13.097Z,32.77
2018-07-15T12:56:43.082Z,33.17
2018-07-15T12:59:12.941Z,33.81
2018-07-15T13:01:42.875Z,33.74
2018-07-15T13:04:13.106Z,33.86
2018-07-15T13:06:43.259Z,33.39
2018-07-15T13:09:13.283Z,33.58
2018-07-15T13:11:43.155Z,33.53
2018-07-15T13:14:13.169Z,33.98
2018-07-15T13:16:43.039Z,32.64
2018-07-15T13:19:13.390Z,32.56
2018-07-15T13:21:43.693Z,31.36
2018-07-15T13:24:13.519Z,32.12
2018-07-15T13:26:43.384Z,31.59
2018-07-15T13:29:13.296Z,32.37
2018-07-15T13:31:43.348Z,33.58
2018-07-15T13:34:13.572Z,33.11
2018-07-15T13:36:43.564Z,33.36
2018-07-15T13:39:13.465Z,33.54
2018-07-15T13:41:43.559Z,31.11
2018-07-15T13:44:13.632Z,31.88
2018-07-15T13:46:43.735Z,30.71
2018-07-15T13:49:13.485Z,29.02
2018-07-15T13:51:43.240Z,33.04
2018-07-15T13:54:13.377Z,33.64
2018-07-15T13:56:43.185Z,33.82
2018-07-15T13:59:13.192Z,33.83
2018-07-15T14:01:43.204Z,31.12
2018-07-15T14:04:12.927Z,30.72
2018-07-15T14:06:42.672Z,30.41
2018-07-15T14:09:12.412Z,30.85
2018-07-15T14:11:42.123Z,30.87
2018-07-15T14:14:11.979Z,31.82
2018-07-15T14:16:41.679Z,31.30
2018-07-15T14:19:11.659Z,33.10
2018-07-15T14:21:41.328Z,31.38
2018-07-15T14:24:11.140Z,30.99
2018-07-15T14:26:40.813Z,30.72
2018-07-15T14:29:10.593Z,31.66
2018-07-15T14:31:40.714Z,30.51
2018-07-15T14:34:10.397Z,30.93
2018-07-15T14:36:40.196Z,31.19
2018-07-15T14:39:09.933Z,31.43
2018-07-15T14:41:40.393Z,28.59
2018-07-15T14:44:10.619Z,28.01
2018-07-15T14:46:40.548Z,28.57
2018-07-15T14:49:10.575Z,29.46
2018-07-15T14:51:40.530Z,29.86
2018-07-15T14:54:10.501Z,29.60
2018-07-15T14:56:40.268Z,30.35
2018-07-15T14:59:10.384Z,28.98
2018-07-15T15:01:40.098Z,28.83
2018-07-15T15:04:09.771Z,29.48
2018-07-15T15:06:39.477Z,29.19
2018-07-15T15:09:09.732Z,29.07
2018-07-15T15:11:39.596Z,27.14
2018-07-15T15:14:09.307Z,30.77
2018-07-15T15:16:39.004Z,29.11
2018-07-15T15:19:09.150Z,29.25
2018-07-15T15:21:38.964Z,29.19
2018-07-15T15:24:08.721Z,27.81
2018-07-15T15:26:38.995Z,27.64
2018-07-15T15:29:08.930Z,29.14
2018-07-15T15:31:38.790Z,28.44
2018-07-15T15:34:08.592Z,29.13
2018-07-15T15:36:38.355Z,29.72
2018-07-15T15:39:08.088Z,26.50
2018-07-15T15:41:37.876Z,28.69
2018-07-15T15:44:07.935Z,28.82
2018-07-15T15:46:37.632Z,27.35
2018-07-15T15:49:07.443Z,27.50
2018-07-15T15:51:37.238Z,28.13
2018-07-15T15:54:07.459Z,29.04
2018-07-15T15:56:37.460Z,28.60
2018-07-15T15:59:07.197Z,28.46
2018-07-15T16:01:36.899Z,28.41
2018-07-15T16:04:07.753Z,27.51
2018-07-15T16:06:37.480Z,28.12
2018-07-15T16:09:09.006Z,28.87
2018-07-15T16:11:38.780Z,29.32
2018-07-15T16:14:08.593Z,28.90
2018-07-15T16:16:38.344Z,29.58
2018-07-15T16:19:08.026Z,27.85
2018-07-15T16:21:37.794Z,28.70
2018-07-15T16:24:07.542Z,28.07
2018-07-15T16:26:37.606Z,29.26
2018-07-15T16:29:07.694Z,30.46
2018-07-15T16:31:37.460Z,29.07
2018-07-15T16:34:07.263Z,28.43
2018-07-15T16:36:37.164Z,27.46
2018-07-15T16:39:08.119Z,28.94
2018-07-15T16:41:38.012Z,30.10
2018-07-15T16:44:07.708Z,30.19
2018-07-15T16:46:37.664Z,29.49
2018-07-15T16:49:07.691Z,29.01
2018-07-15T16:51:37.976Z,29.27
2018-07-15T16:54:07.725Z,30.86
2018-07-15T16:56:37.487Z,31.38
2018-07-15T16:59:07.182Z,31.10
2018-07-15T17:01:37.189Z,32.25
2018-07-15T17:04:06.984Z,32.36
2018-07-15T17:06:36.818Z,32.09
2018-07-15T17:09:06.987Z,32.33
2018-07-15T17:11:36.857Z,32.36
2018-07-15T17:14:06.858Z,31.47
2018-07-15T17:16:36.592Z,33.88
2018-07-15T17:19:06.351Z,33.03
2018-07-15T17:21:36.041Z,33.46
2018-07-15T17:24:05.724Z,35.32
2018-07-15T17:26:35.713Z,35.79
2018-07-15T17:29:05.633Z,37.59
2018-07-15T17:31:35.429Z,37.04
2018-07-15T17:34:05.611Z,38.16
2018-07-15T17:36:35.339Z,39.33
2018-07-15T17:39:05.750Z,38.89
2018-07-15T17:41:35.760Z,39.79
2018-07-15T17:44:05.507Z,40.49
2018-07-15T17:46:35.225Z,40.86
2018-07-15T17:49:04.925Z,41.01
2018-07-15T17:51:34.648Z,42.13
2018-07-15T17:54:04.379Z,42.52
2018-07-15T17:56:34.168Z,42.67
2018-07-15T17:59:04.139Z,42.86
2018-07-15T18:01:34.317Z,43.61
2018-07-15T18:04:04.598Z,44.08
2018-07-15T18:06:34.456Z,44.00
2018-07-15T18:09:05.217Z,43.75
2018-07-15T18:11:34.920Z,43.74
2018-07-15T18:14:04.749Z,44.01
2018-07-15T18:16:34.442Z,44.33
2018-07-15T18:19:04.121Z,44.51
2018-07-15T18:21:33.848Z,44.27
2018-07-15T18:24:03.876Z,44.61
2018-07-15T18:26:33.619Z,45.37
2018-07-15T18:29:03.290Z,45.24
2018-07-15T18:31:32.981Z,45.63
2018-07-15T18:34:02.700Z,45.72
2018-07-15T18:36:32.748Z,45.48
2018-07-15T18:39:02.564Z,46.31
2018-07-15T18:41:32.352Z,46.91
2018-07-15T18:44:02.288Z,47.20
2018-07-15T18:46:32.003Z,47.80
2018-07-15T18:49:01.779Z,48.22
2018-07-15T18:51:31.601Z,48.82
2018-07-15T18:54:01.376Z,49.75
2018-07-15T18:56:31.478Z,51.49
2018-07-15T18:59:01.209Z,52.77
2018-07-15T19:01:30.955Z,55.20
2018-07-15T19:04:00.940Z,57.00
2018-07-15T19:06:30.744Z,59.16
2018-07-15T19:09:00.719Z,58.83
2018-07-15T19:11:30.703Z,58.46
2018-07-15T19:14:00.444Z,59.70
2018-07-15T19:16:30.143Z,60.22
2018-07-15T19:19:00.799Z,61.50
2018-07-15T19:21:30.555Z,61.62
2018-07-15T19:24:00.332Z,62.08
2018-07-15T19:26:30.076Z,62.63
2018-07-15T19:28:59.782Z,63.04
2018-07-15T19:31:29.594Z,64.12
2018-07-15T19:33:59.435Z,65.38
2018-07-15T19:36:30.157Z,67.14
2018-07-15T19:39:00.122Z,68.47
2018-07-15T19:41:29.884Z,68.75
2018-07-15T19:43:59.534Z,68.52
2018-07-15T19:46:29.223Z,68.91
2018-07-15T19:48:58.943Z,68.90
2018-07-15T19:51:28.808Z,67.96
2018-07-15T19:53:58.578Z,68.34
2018-07-15T19:56:28.313Z,69.03
2018-07-15T19:58:58.473Z,69.45
2018-07-15T20:01:28.444Z,69.37
2018-07-15T20:03:58.212Z,69.94
2018-07-15T20:06:27.889Z,70.64
2018-07-15T20:08:57.590Z,71.30
2018-07-15T20:11:27.281Z,71.35
2018-07-15T20:13:57.003Z,71.48
2018-07-15T20:16:26.716Z,71.51
2018-07-15T20:18:56.860Z,69.93
2018-07-15T20:21:26.567Z,68.61
2018-07-15T20:23:56.325Z,67.87
2018-07-15T20:26:26.437Z,68.15
2018-07-15T20:28:56.263Z,68.07
2018-07-15T20:31:25.977Z,68.00
2018-07-15T20:33:56.059Z,68.57
2018-07-15T20:36:25.811Z,68.45
2018-07-15T20:38:55.633Z,67.14
2018-07-15T20:41:25.544Z,66.60
2018-07-15T20:43:55.326Z,67.72
2018-07-15T20:46:25.064Z,68.74
2018-07-15T20:48:54.812Z,69.02
2018-07-15T20:51:24.977Z,70.76
2018-07-15T20:53:54.676Z,71.29
2018-07-15T20:56:24.557Z,71.46
2018-07-15T20:58:54.507Z,71.92
2018-07-15T21:01:24.485Z,71.22
2018-07-15T21:03:54.497Z,71.84
2018-07-15T21:06:24.266Z,72.58
2018-07-15T21:08:54.739Z,70.67
2018-07-15T21:11:24.727Z,67.29
2018-07-15T21:13:54.584Z,65.64
2018-07-15T21:16:24.617Z,65.75
2018-07-15T21:18:54.678Z,66.49
2018-07-15T21:21:24.734Z,67.16
2018-07-15T21:23:54.836Z,67.54
2018-07-15T21:26:24.606Z,68.60
2018-07-15T21:28:54.326Z,69.05
2018-07-15T21:31:24.235Z,69.38
2018-07-15T21:33:54.148Z,69.88
2018-07-15T21:36:23.839Z,70.08
2018-07-15T21:38:53.696Z,70.81
2018-07-15T21:41:23.796Z,70.53
2018-07-15T21:43:53.502Z,70.54
2018-07-15T21:46:23.345Z,70.50
2018-07-15T21:48:53.116Z,69.26
2018-07-15T21:51:22.858Z,69.19
2018-07-15T21:53:52.612Z,69.45
2018-07-15T21:56:22.474Z,70.40
2018-07-15T21:58:52.185Z,70.82
2018-07-15T22:01:22.361Z,71.75
2018-07-15T22:03:52.025Z,71.70
2018-07-15T22:06:32.520Z,72.36
2018-07-15T22:09:13.032Z,73.24
2018-07-15T22:11:42.929Z,73.67
2018-07-15T22:14:12.832Z,73.70
2018-07-15T22:16:42.884Z,73.25
2018-07-15T22:19:12.689Z,71.34
2018-07-15T22:21:42.367Z,71.41
2018-07-15T22:24:12.249Z,72.68
2018-07-15T22:26:42.165Z,73.46
2018-07-15T22:29:11.881Z,72.31
2018-07-15T22:31:41.952Z,71.64
2018-07-15T22:34:11.995Z,72.26
2018-07-15T22:36:41.748Z,70.99
2018-07-15T22:39:11.471Z,69.48
2018-07-15T22:41:41.217Z,70.31
2018-07-15T22:44:10.936Z,74.16
2018-07-15T22:46:41.239Z,76.08
2018-07-15T22:49:11.607Z,76.46
2018-07-15T22:51:41.393Z,76.79
2018-07-15T22:54:11.119Z,77.80
2018-07-15T22:56:41.433Z,78.92
2018-07-15T22:59:11.281Z,79.22
2018-07-15T23:01:41.185Z,79.09
2018-07-15T23:04:10.881Z,79.81
2018-07-15T23:06:40.571Z,80.59
2018-07-15T23:09:10.773Z,79.88
2018-07-15T23:11:40.565Z,80.86
2018-07-15T23:14:10.457Z,79.26
2018-07-15T23:16:40.474Z,78.87
2018-07-15T23:19:10.342Z,79.17
2018-07-15T23:21:40.711Z,79.73
2018-07-15T23:24:10.553Z,79.75
2018-07-15T23:26:40.447Z,80.56
2018-07-15T23:29:10.225Z,81.65
2018-07-15T23:31:40.134Z,83.22
2018-07-15T23:34:10.383Z,83.26
2018-07-15T23:36:40.137Z,84.17
2018-07-15T23:39:09.869Z,82.34
2018-07-15T23:41:39.644Z,80.35
2018-07-15T23:44:10.040Z,76.95
2018-07-15T23:46:40.146Z,76.23
2018-07-15T23:49:10.341Z,75.00
2018-07-15T23:51:40.135Z,74.26
2018-07-15T23:54:09.874Z,73.95
2018-07-15T23:56:39.614Z,74.26
2018-07-15T23:59:09.314Z,74.53
